createdAt,value
2023-04-18T00:00:27.493Z,14.77
2023-04-18T00:02:55.029Z,19.10
2023-04-18T00:05:21.832Z,14.05
2023-04-18T00:07:48.544Z,13.50
2023-04-18T00:10:15.538Z,15.88
2023-04-18T00:12:42.903Z,10.75
2023-04-18T00:15:10.090Z,12.80
2023-04-18T00:17:38.377Z,11.90
2023-04-18T00:20:11.019Z,10.85
2023-04-18T00:22:42.965Z,10.43
2023-04-18T00:25:10.550Z,10.82
2023-04-18T00:27:38.707Z,11.35
2023-04-18T00:30:08.915Z,11.77
2023-04-18T00:32:37.631Z,14.70
2023-04-18T00:35:04.585Z,12.93
2023-04-18T00:37:31.027Z,11.88
2023-04-18T00:39:57.424Z,10.48
2023-04-18T00:42:25.904Z,14.35
2023-04-18T00:44:52.319Z,12.90
2023-04-18T00:47:18.746Z,11.73
2023-04-18T00:49:45.789Z,10.82
2023-04-18T00:52:12.815Z,11.23
2023-04-18T00:54:42.166Z,9.32
2023-04-18T00:57:09.068Z,11.80
2023-04-18T00:59:35.655Z,10.93
2023-04-18T01:02:05.301Z,11.48
2023-04-18T01:04:33.616Z,9.77
2023-04-18T01:07:02.118Z,13.25
2023-04-18T01:09:29.165Z,11.02
2023-04-18T01:11:55.593Z,12.07
2023-04-18T01:14:22.160Z,13.70
2023-04-18T01:16:48.887Z,12.20
2023-04-18T01:19:19.147Z,9.80
2023-04-18T01:21:45.867Z,10.45
2023-04-18T01:24:15.475Z,9.68
2023-04-18T01:26:44.028Z,12.45
2023-04-18T01:29:11.772Z,10.82
2023-04-18T01:31:39.818Z,9.15
2023-04-18T01:34:07.774Z,9.15
2023-04-18T01:36:35.907Z,11.25
2023-04-18T01:39:02.391Z,13.35
2023-04-18T01:41:32.199Z,11.00
2023-04-18T01:43:59.249Z,9.35
2023-04-18T01:46:26.133Z,10.30
2023-04-18T01:48:53.601Z,10.55
2023-04-18T01:51:20.814Z,11.27
2023-04-18T01:53:47.281Z,8.60
2023-04-18T01:56:13.771Z,10.10
2023-04-18T01:58:41.559Z,8.77
2023-04-18T02:01:08.296Z,9.90
2023-04-18T02:03:35.194Z,10.13
2023-04-18T02:06:03.769Z,10.77
2023-04-18T02:08:30.850Z,10.93
2023-04-18T02:10:57.268Z,9.55
2023-04-18T02:13:23.682Z,8.63
2023-04-18T02:15:50.842Z,8.60
2023-04-18T02:18:18.129Z,11.27
2023-04-18T02:20:46.254Z,8.85
2023-04-18T02:23:12.744Z,9.35
2023-04-18T02:25:39.192Z,9.45
2023-04-18T02:28:05.603Z,7.95
2023-04-18T02:30:32.089Z,8.43
2023-04-18T02:33:01.897Z,8.13
2023-04-18T02:35:29.142Z,8.05
2023-04-18T02:37:55.592Z,7.57
2023-04-18T02:40:22.067Z,8.48
2023-04-18T02:42:48.475Z,8.93
2023-04-18T02:45:15.327Z,8.00
2023-04-18T02:47:51.705Z,8.13
2023-04-18T02:50:21.438Z,7.82
2023-04-18T02:52:48.220Z,8.15
2023-04-18T02:55:16.520Z,8.43
2023-04-18T02:57:44.669Z,7.60
2023-04-18T03:00:11.846Z,10.88
2023-04-18T03:02:38.345Z,8.45
2023-04-18T03:05:19.542Z,8.80
2023-04-18T03:07:46.074Z,7.47
2023-04-18T03:10:12.962Z,8.40
2023-04-18T03:12:40.455Z,7.50
2023-04-18T03:15:09.504Z,7.63
2023-04-18T03:17:36.604Z,8.75
2023-04-18T03:20:05.557Z,8.25
2023-04-18T03:22:31.944Z,8.63
2023-04-18T03:25:00.563Z,7.47
2023-04-18T03:27:45.614Z,7.85
2023-04-18T03:30:14.916Z,8.10
2023-04-18T03:32:46.453Z,8.10
2023-04-18T03:35:13.110Z,7.93
2023-04-18T03:37:39.865Z,7.43
2023-04-18T03:40:08.162Z,6.93
2023-04-18T03:42:36.095Z,7.95
2023-04-18T03:45:03.166Z,7.93
2023-04-18T03:47:33.497Z,10.98
2023-04-18T03:50:00.159Z,7.65
2023-04-18T03:52:29.175Z,9.93
2023-04-18T03:54:56.288Z,8.10
2023-04-18T03:57:26.532Z,8.98
2023-04-18T03:59:53.846Z,7.55
2023-04-18T04:02:21.203Z,8.88
2023-04-18T04:04:50.024Z,9.45
2023-04-18T04:07:16.594Z,8.98
2023-04-18T04:09:43.032Z,8.02
2023-04-18T04:12:09.396Z,8.05
2023-04-18T04:14:35.923Z,7.43
2023-04-18T04:17:02.870Z,8.32
2023-04-18T04:19:30.995Z,10.27
2023-04-18T04:22:07.552Z,12.25
2023-04-18T04:24:35.305Z,9.07
2023-04-18T04:27:03.573Z,8.93
2023-04-18T04:29:31.246Z,10.88
2023-04-18T04:31:59.524Z,8.15
2023-04-18T04:34:34.302Z,8.40
2023-04-18T04:37:03.554Z,9.70
2023-04-18T04:39:33.335Z,8.43
2023-04-18T04:42:13.269Z,9.20
2023-04-18T04:44:50.770Z,9.57
2023-04-18T04:47:17.353Z,10.65
2023-04-18T04:49:43.935Z,12.18
2023-04-18T04:52:10.648Z,11.75
2023-04-18T04:54:37.145Z,8.98
2023-04-18T04:57:06.685Z,9.65
2023-04-18T04:59:33.096Z,9.48
2023-04-18T05:02:00.441Z,11.27
2023-04-18T05:04:27.009Z,10.23
2023-04-18T05:06:54.121Z,12.57
2023-04-18T05:09:21.195Z,10.20
2023-04-18T05:11:49.309Z,14.07
2023-04-18T05:14:16.776Z,11.38
2023-04-18T05:16:43.525Z,13.07
2023-04-18T05:19:10.838Z,12.10
2023-04-18T05:21:37.403Z,11.88
2023-04-18T05:24:03.884Z,11.80
2023-04-18T05:26:30.297Z,11.90
2023-04-18T05:28:56.722Z,13.35
2023-04-18T05:31:23.184Z,12.70
2023-04-18T05:33:49.673Z,12.95
2023-04-18T05:36:16.208Z,10.90
2023-04-18T05:38:42.683Z,14.18
2023-04-18T05:41:09.541Z,13.23
2023-04-18T05:43:35.945Z,14.73
2023-04-18T05:46:02.437Z,12.18
2023-04-18T05:48:28.922Z,11.73
2023-04-18T05:50:55.847Z,15.13
2023-04-18T05:53:22.270Z,15.50
2023-04-18T05:55:50.025Z,12.50
2023-04-18T05:58:16.900Z,14.63
2023-04-18T06:00:43.607Z,13.88
2023-04-18T06:03:11.346Z,15.60
2023-04-18T06:05:38.526Z,12.48
2023-04-18T06:08:05.040Z,12.63
2023-04-18T06:10:33.123Z,12.75
2023-04-18T06:12:59.506Z,13.55
2023-04-18T06:15:25.870Z,15.82
2023-04-18T06:17:52.366Z,12.45
2023-04-18T06:20:18.865Z,12.02
2023-04-18T06:22:45.260Z,12.63
2023-04-18T06:25:11.712Z,14.20
2023-04-18T06:27:38.553Z,14.88
2023-04-18T06:30:07.078Z,15.77
2023-04-18T06:32:33.842Z,13.43
2023-04-18T06:35:00.273Z,13.70
2023-04-18T06:37:26.833Z,13.35
2023-04-18T06:39:53.351Z,13.93
2023-04-18T06:42:22.164Z,12.48
2023-04-18T06:44:49.059Z,13.40
2023-04-18T06:47:15.884Z,13.07
2023-04-18T06:49:42.270Z,13.45
2023-04-18T06:52:08.653Z,11.93
2023-04-18T06:54:36.083Z,12.13
2023-04-18T06:57:03.625Z,11.13
2023-04-18T06:59:30.524Z,13.35
2023-04-18T07:01:56.951Z,13.23
2023-04-18T07:04:23.487Z,12.60
2023-04-18T07:06:51.521Z,13.00
2023-04-18T07:09:17.944Z,11.70
2023-04-18T07:11:44.620Z,11.30
2023-04-18T07:14:12.752Z,13.15
2023-04-18T07:16:39.549Z,13.20
2023-04-18T07:19:06.606Z,12.80
2023-04-18T07:21:33.138Z,15.48
2023-04-18T07:23:59.567Z,14.40
2023-04-18T07:26:27.460Z,14.00
2023-04-18T07:28:54.057Z,14.32
2023-04-18T07:31:20.602Z,14.23
2023-04-18T07:33:47.061Z,13.63
2023-04-18T07:36:13.597Z,13.88
2023-04-18T07:38:40.051Z,13.73
2023-04-18T07:41:06.544Z,13.73
2023-04-18T07:43:32.982Z,13.05
2023-04-18T07:45:59.440Z,14.02
2023-04-18T07:48:25.998Z,16.08
2023-04-18T07:50:53.858Z,14.95
2023-04-18T07:53:20.396Z,14.10
2023-04-18T07:55:46.944Z,13.13
2023-04-18T07:58:13.958Z,15.35
2023-04-18T08:00:42.757Z,14.38
2023-04-18T08:03:12.876Z,13.77
2023-04-18T08:05:41.388Z,18.25
2023-04-18T08:08:09.476Z,16.70
2023-04-18T08:10:36.498Z,14.43
2023-04-18T08:13:03.592Z,11.82
2023-04-18T08:15:32.631Z,14.35
2023-04-18T08:18:00.348Z,8.85
2023-04-18T08:20:27.410Z,13.90
2023-04-18T08:23:06.145Z,10.32
2023-04-18T08:25:36.229Z,12.38
2023-04-18T08:28:03.721Z,9.52
2023-04-18T08:30:30.169Z,11.02
2023-04-18T08:32:56.683Z,11.57
2023-04-18T08:35:23.195Z,11.05
2023-04-18T08:37:49.830Z,14.10
2023-04-18T08:40:16.872Z,13.02
2023-04-18T08:42:46.921Z,11.18
2023-04-18T08:45:14.135Z,9.82
2023-04-18T08:47:43.478Z,13.18
2023-04-18T08:50:10.394Z,10.77
2023-04-18T08:52:38.683Z,10.73
2023-04-18T08:55:06.088Z,11.45
2023-04-18T08:57:33.163Z,11.45
2023-04-18T09:00:02.201Z,12.20
2023-04-18T09:02:38.904Z,11.48
2023-04-18T09:05:11.787Z,14.40
2023-04-18T09:07:38.682Z,12.77
2023-04-18T09:10:05.479Z,13.07
2023-04-18T09:12:32.794Z,15.13
2023-04-18T09:15:15.955Z,16.35
2023-04-18T09:17:53.388Z,13.82
2023-04-18T09:20:41.185Z,14.07
2023-04-18T09:23:14.400Z,16.70
2023-04-18T09:25:46.511Z,15.23
2023-04-18T09:28:33.116Z,15.05
2023-04-18T09:31:09.520Z,15.65
2023-04-18T09:33:36.968Z,12.48
2023-04-18T09:36:27.020Z,14.98
2023-04-18T09:38:56.322Z,14.60
2023-04-18T09:41:24.295Z,15.02
2023-04-18T09:44:07.536Z,15.48
2023-04-18T09:46:33.985Z,16.10
2023-04-18T09:49:00.983Z,16.20
2023-04-18T09:51:28.504Z,16.02
2023-04-18T09:53:55.167Z,16.25
2023-04-18T09:56:28.055Z,16.63
2023-04-18T09:59:07.065Z,15.77
2023-04-18T10:01:34.458Z,16.65
2023-04-18T10:04:04.047Z,16.52
2023-04-18T10:06:33.864Z,16.67
2023-04-18T10:09:03.974Z,14.80
2023-04-18T10:11:32.024Z,14.07
2023-04-18T10:14:02.612Z,15.38
2023-04-18T10:16:29.992Z,16.48
2023-04-18T10:18:56.504Z,16.92
2023-04-18T10:21:22.903Z,15.63
2023-04-18T10:23:50.332Z,16.75
2023-04-18T10:26:16.876Z,14.35
2023-04-18T10:28:56.309Z,17.35
2023-04-18T10:31:24.353Z,15.15
2023-04-18T10:36:28.011Z,19.85
2023-04-18T10:38:59.199Z,19.60
2023-04-18T10:41:31.161Z,16.77
2023-04-18T10:44:11.497Z,18.58
2023-04-18T10:46:53.251Z,18.40
2023-04-18T10:49:23.923Z,14.25
2023-04-18T10:51:53.864Z,17.83
2023-04-18T10:54:32.525Z,17.15
2023-04-18T10:57:04.714Z,20.23
2023-04-18T10:59:32.957Z,17.88
2023-04-18T11:02:21.309Z,18.45
2023-04-18T11:04:52.405Z,19.13
2023-04-18T11:07:19.425Z,16.58
2023-04-18T11:09:56.844Z,16.52
2023-04-18T11:12:23.306Z,17.60
2023-04-18T11:14:51.854Z,16.75
2023-04-18T11:17:26.016Z,18.17
2023-04-18T11:20:10.900Z,16.48
2023-04-18T11:22:52.476Z,18.65
2023-04-18T11:25:23.721Z,17.00
2023-04-18T11:27:57.024Z,16.35
2023-04-18T11:32:51.411Z,19.33
2023-04-18T11:35:19.386Z,16.42
2023-04-18T11:37:45.890Z,17.38
2023-04-18T11:40:13.646Z,16.33
2023-04-18T11:42:40.934Z,18.00
2023-04-18T11:45:14.554Z,17.90
2023-04-18T11:47:43.071Z,19.38
2023-04-18T11:50:11.616Z,17.58
2023-04-18T11:52:40.177Z,15.52
2023-04-18T11:55:21.245Z,15.80
2023-04-18T11:57:55.708Z,15.35
2023-04-18T12:00:34.416Z,16.10
2023-04-18T12:03:04.074Z,16.48
2023-04-18T12:05:37.008Z,14.98
2023-04-18T12:08:13.085Z,16.83
2023-04-18T12:10:47.836Z,13.68
2023-04-18T12:13:14.602Z,16.08
2023-04-18T12:15:44.376Z,18.83
2023-04-18T12:18:13.008Z,14.60
2023-04-18T12:20:46.111Z,15.05
2023-04-18T12:23:36.149Z,16.60
2023-04-18T12:26:05.545Z,15.65
2023-04-18T12:28:32.935Z,14.68
2023-04-18T12:31:00.053Z,16.65
2023-04-18T12:33:27.014Z,15.68
2023-04-18T12:35:54.034Z,15.70
2023-04-18T12:38:23.000Z,14.90
2023-04-18T12:40:51.171Z,15.18
2023-04-18T12:43:18.546Z,15.48
2023-04-18T12:45:49.814Z,14.23
2023-04-18T12:48:16.372Z,15.32
2023-04-18T12:50:42.807Z,16.10
2023-04-18T12:53:09.551Z,15.10
2023-04-18T12:55:36.436Z,14.15
2023-04-18T12:58:03.170Z,14.55
2023-04-18T13:00:31.285Z,13.82
2023-04-18T13:02:58.685Z,13.98
2023-04-18T13:05:29.772Z,11.63
2023-04-18T13:08:15.385Z,12.25
2023-04-18T13:10:43.308Z,13.93
2023-04-18T13:13:10.112Z,10.63
2023-04-18T13:15:36.615Z,12.68
2023-04-18T13:18:05.859Z,9.50
2023-04-18T13:20:33.733Z,9.50
2023-04-18T13:23:01.110Z,11.02
2023-04-18T13:25:27.725Z,8.98
2023-04-18T13:27:54.153Z,8.80
2023-04-18T13:30:21.026Z,13.27
2023-04-18T13:32:47.573Z,16.73
2023-04-18T13:35:14.262Z,12.85
2023-04-18T13:37:40.779Z,14.15
2023-04-18T13:40:08.113Z,15.30
2023-04-18T13:42:36.034Z,14.57
2023-04-18T13:45:03.150Z,12.27
2023-04-18T13:47:30.124Z,11.45
2023-04-18T13:49:57.651Z,11.35
2023-04-18T13:52:24.591Z,11.52
2023-04-18T13:54:50.978Z,11.48
2023-04-18T13:57:17.448Z,10.65
2023-04-18T13:59:43.939Z,11.45
2023-04-18T14:02:10.794Z,13.05
2023-04-18T14:04:37.786Z,13.60
2023-04-18T14:07:06.262Z,9.93
2023-04-18T14:09:33.557Z,11.02
2023-04-18T14:12:00.024Z,12.18
2023-04-18T14:14:26.698Z,10.65
2023-04-18T14:16:53.818Z,9.35
2023-04-18T14:19:20.660Z,9.98
2023-04-18T14:21:47.964Z,9.45
2023-04-18T14:24:14.442Z,8.88
2023-04-18T14:26:40.979Z,9.20
2023-04-18T14:29:07.367Z,10.07
2023-04-18T14:31:33.913Z,9.43
2023-04-18T14:34:00.398Z,9.20
2023-04-18T14:36:27.113Z,8.00
2023-04-18T14:38:54.600Z,9.18
2023-04-18T14:41:21.072Z,8.52
2023-04-18T14:43:47.672Z,8.32
2023-04-18T14:46:16.492Z,9.10
2023-04-18T14:48:48.869Z,8.35
2023-04-18T14:51:16.489Z,8.52
2023-04-18T14:53:43.441Z,8.73
2023-04-18T14:56:09.964Z,8.88
2023-04-18T14:58:36.680Z,10.02
2023-04-18T15:01:04.231Z,8.48
2023-04-18T15:03:31.055Z,10.85
2023-04-18T15:05:57.738Z,9.32
2023-04-18T15:08:24.311Z,8.82
2023-04-18T15:10:50.785Z,8.40
2023-04-18T15:13:17.268Z,8.63
2023-04-18T15:15:51.273Z,10.55
2023-04-18T15:18:17.865Z,8.93
2023-04-18T15:20:44.263Z,7.93
2023-04-18T15:23:13.496Z,7.65
2023-04-18T15:25:40.969Z,8.02
2023-04-18T15:28:07.391Z,9.75
2023-04-18T15:30:33.844Z,8.90
2023-04-18T15:33:01.755Z,10.23
2023-04-18T15:35:28.225Z,9.57
2023-04-18T15:37:56.342Z,10.73
2023-04-18T15:40:23.062Z,10.57
2023-04-18T15:42:50.797Z,9.13
2023-04-18T15:45:17.187Z,10.10
2023-04-18T15:47:44.047Z,10.02
2023-04-18T15:50:11.012Z,9.18
2023-04-18T15:52:37.916Z,10.23
2023-04-18T15:55:05.220Z,10.65
2023-04-18T15:57:32.177Z,8.95
2023-04-18T15:59:59.396Z,8.98
2023-04-18T16:02:26.398Z,10.18
2023-04-18T16:04:53.402Z,9.32
2023-04-18T16:07:19.860Z,12.70
2023-04-18T16:09:46.234Z,11.18
2023-04-18T16:12:12.642Z,9.95
2023-04-18T16:14:39.032Z,11.95
2023-04-18T16:17:05.621Z,10.00
2023-04-18T16:19:32.936Z,9.23
2023-04-18T16:22:00.987Z,12.02
2023-04-18T16:24:27.562Z,9.18
2023-04-18T16:26:55.467Z,10.13
2023-04-18T16:29:22.044Z,10.88
2023-04-18T16:31:48.445Z,10.82
2023-04-18T16:34:15.649Z,12.10
2023-04-18T16:36:42.173Z,10.50
2023-04-18T16:39:08.623Z,10.38
2023-04-18T16:41:35.350Z,11.85
2023-04-18T16:44:01.802Z,10.73
2023-04-18T16:46:31.272Z,12.30
2023-04-18T16:48:58.757Z,10.90
2023-04-18T16:51:26.058Z,15.85
2023-04-18T16:53:52.443Z,12.48
2023-04-18T16:56:19.132Z,11.73
2023-04-18T16:58:45.790Z,12.00
2023-04-18T17:01:12.238Z,9.98
2023-04-18T17:03:38.819Z,12.20
2023-04-18T17:06:05.777Z,13.18
2023-04-18T17:08:33.524Z,9.80
2023-04-18T17:11:01.799Z,11.70
2023-04-18T17:13:31.204Z,11.75
2023-04-18T17:15:57.943Z,10.05
2023-04-18T17:18:24.575Z,13.18
2023-04-18T17:20:51.556Z,11.25
2023-04-18T17:23:18.029Z,12.82
2023-04-18T17:25:44.497Z,13.85
2023-04-18T17:28:11.676Z,11.38
2023-04-18T17:30:44.075Z,11.38
2023-04-18T17:33:10.904Z,10.10
2023-04-18T17:35:41.357Z,12.95
2023-04-18T17:38:08.268Z,12.15
2023-04-18T17:40:35.163Z,9.88
2023-04-18T17:43:01.908Z,9.73
2023-04-18T17:45:30.982Z,10.70
2023-04-18T17:47:59.250Z,10.00
2023-04-18T17:50:25.672Z,11.30
2023-04-18T17:52:52.383Z,10.90
2023-04-18T17:55:18.866Z,10.40
2023-04-18T17:57:46.096Z,12.63
2023-04-18T18:00:14.416Z,11.18
2023-04-18T18:02:42.622Z,10.07
2023-04-18T18:05:13.448Z,11.35
2023-04-18T18:07:42.787Z,11.15
2023-04-18T18:10:09.884Z,10.18
2023-04-18T18:12:37.934Z,10.32
2023-04-18T18:15:05.187Z,11.77
2023-04-18T18:17:31.639Z,11.70
2023-04-18T18:19:58.067Z,12.43
2023-04-18T18:22:25.963Z,15.05
2023-04-18T18:24:52.734Z,12.65
2023-04-18T18:27:20.251Z,13.05
2023-04-18T18:29:47.990Z,11.80
2023-04-18T18:32:14.398Z,11.52
2023-04-18T18:34:40.786Z,11.60
2023-04-18T18:37:07.260Z,12.75
2023-04-18T18:39:33.692Z,13.05
2023-04-18T18:42:00.953Z,15.80
2023-04-18T18:44:27.356Z,15.68
2023-04-18T18:46:53.869Z,14.02
2023-04-18T18:49:20.898Z,12.55
2023-04-18T18:51:47.296Z,11.63
2023-04-18T18:54:13.722Z,13.00
2023-04-18T18:56:41.975Z,12.90
2023-04-18T18:59:08.469Z,13.05
2023-04-18T19:01:35.024Z,13.65
2023-04-18T19:04:01.612Z,11.10
2023-04-18T19:06:28.258Z,12.95
2023-04-18T19:08:54.770Z,14.98
2023-04-18T19:11:21.182Z,11.60
2023-04-18T19:13:47.601Z,13.57
2023-04-18T19:16:14.029Z,12.82
2023-04-18T19:18:41.388Z,12.50
2023-04-18T19:21:07.789Z,13.05
2023-04-18T19:23:34.631Z,13.48
2023-04-18T19:26:01.089Z,14.13
2023-04-18T19:28:27.610Z,13.32
2023-04-18T19:30:54.033Z,14.27
2023-04-18T19:33:21.120Z,14.18
2023-04-18T19:35:47.493Z,12.70
2023-04-18T19:38:13.882Z,14.90
2023-04-18T19:40:40.375Z,12.65
2023-04-18T19:43:06.788Z,13.90
2023-04-18T19:45:33.374Z,11.93
2023-04-18T19:48:00.213Z,12.82
2023-04-18T19:50:26.765Z,13.32
2023-04-18T19:52:53.306Z,11.77
2023-04-18T19:55:19.790Z,13.38
2023-04-18T19:57:47.296Z,12.93
2023-04-18T20:00:14.958Z,13.07
2023-04-18T20:02:42.351Z,12.18
2023-04-18T20:05:09.896Z,14.02
2023-04-18T20:07:36.630Z,13.55
2023-04-18T20:10:04.278Z,11.07
2023-04-18T20:12:31.050Z,13.75
2023-04-18T20:14:58.724Z,12.77
2023-04-18T20:17:30.373Z,12.07
2023-04-18T20:19:57.114Z,11.88
2023-04-18T20:22:26.878Z,14.65
2023-04-18T20:24:56.918Z,14.95
2023-04-18T20:27:23.405Z,14.80
2023-04-18T20:29:49.916Z,13.10
2023-04-18T20:32:17.085Z,13.13
2023-04-18T20:34:43.573Z,14.25
2023-04-18T20:37:09.965Z,13.60
2023-04-18T20:39:37.971Z,15.15
2023-04-18T20:42:04.655Z,13.75
2023-04-18T20:44:33.300Z,14.95
2023-04-18T20:46:59.709Z,14.93
2023-04-18T20:49:26.177Z,14.27
2023-04-18T20:51:52.618Z,14.43
2023-04-18T20:54:19.235Z,13.88
2023-04-18T20:56:45.752Z,13.27
2023-04-18T20:59:12.490Z,11.57
2023-04-18T21:01:38.866Z,13.13
2023-04-18T21:04:05.366Z,13.82
2023-04-18T21:06:32.656Z,13.50
2023-04-18T21:08:59.044Z,16.02
2023-04-18T21:11:25.546Z,12.25
2023-04-18T21:13:51.956Z,13.73
2023-04-18T21:16:18.447Z,12.98
2023-04-18T21:18:44.903Z,12.45
2023-04-18T21:21:11.718Z,12.30
2023-04-18T21:23:42.647Z,11.95
2023-04-18T21:26:11.865Z,12.98
2023-04-18T21:28:59.152Z,14.93
2023-04-18T21:31:26.993Z,13.20
2023-04-18T21:33:54.628Z,13.13
2023-04-18T21:36:21.914Z,13.98
2023-04-18T21:38:48.659Z,13.85
2023-04-18T21:41:16.711Z,13.55
2023-04-18T21:43:44.002Z,13.70
2023-04-18T21:46:14.145Z,15.55
2023-04-18T21:48:42.005Z,15.50
2023-04-18T21:51:09.780Z,15.68
2023-04-18T21:53:37.927Z,16.85
2023-04-18T21:56:05.206Z,14.00
2023-04-18T21:58:32.165Z,12.73
2023-04-18T22:00:58.709Z,14.93
2023-04-18T22:03:27.468Z,12.50
2023-04-18T22:05:56.469Z,12.65
2023-04-18T22:08:25.622Z,15.13
2023-04-18T22:10:56.184Z,13.13
2023-04-18T22:13:23.092Z,17.00
2023-04-18T22:15:51.281Z,13.73
2023-04-18T22:18:18.973Z,14.20
2023-04-18T22:20:46.739Z,11.73
2023-04-18T22:23:13.601Z,11.98
2023-04-18T22:25:40.459Z,12.02
2023-04-18T22:28:06.881Z,12.05
2023-04-18T22:30:33.394Z,13.50
2023-04-18T22:32:59.861Z,12.65
2023-04-18T22:35:26.927Z,12.52
2023-04-18T22:37:53.428Z,13.07
2023-04-18T22:40:19.935Z,13.68
2023-04-18T22:42:46.304Z,13.40
2023-04-18T22:45:13.543Z,15.93
2023-04-18T22:47:40.167Z,17.60
2023-04-18T22:50:07.770Z,14.77
2023-04-18T22:52:34.261Z,12.95
2023-04-18T22:55:02.451Z,15.57
2023-04-18T22:57:28.986Z,14.63
2023-04-18T22:59:55.854Z,14.82
2023-04-18T23:02:22.297Z,14.50
2023-04-18T23:04:49.331Z,14.30
2023-04-18T23:07:16.549Z,16.15
2023-04-18T23:09:43.298Z,14.40
2023-04-18T23:12:09.723Z,13.20
2023-04-18T23:14:36.196Z,16.98
2023-04-18T23:17:02.676Z,14.25
2023-04-18T23:19:29.148Z,17.27
2023-04-18T23:21:55.698Z,14.05
2023-04-18T23:24:22.266Z,13.85
2023-04-18T23:26:48.657Z,14.57
2023-04-18T23:29:15.051Z,13.77
2023-04-18T23:31:41.555Z,13.30
2023-04-18T23:34:07.991Z,15.05
2023-04-18T23:36:34.624Z,14.50
2023-04-18T23:39:01.018Z,16.60
2023-04-18T23:41:27.870Z,15.60
2023-04-18T23:43:54.239Z,16.63
2023-04-18T23:46:20.666Z,16.98
2023-04-18T23:48:47.174Z,15.48
2023-04-18T23:51:13.599Z,16.08
2023-04-18T23:53:39.993Z,13.65
2023-04-18T23:56:06.806Z,15.57
2023-04-18T23:58:33.292Z,14.90
